ダッカ の空港の天気 - METARとTAF

シャージャラル国際空港(ダッカ) ( VGHS / DAC ) - バングラデシュ ダッカ
飛行場実況気象(Metar)
観測時間09/25 09:30 BDT (09/25 03:30 UTC)
風向・風速西南西 4m/s
視程3500m
天気現象煙霧
全天の4割程度の雲 雲底高度 370m
全天の8割程度の雲 雲底高度 3050m
気温30℃
湿度75%
気圧1010hPa
METARVGHS 250330Z 24007KT 3500 HZ SCT012 BKN100 30/25 Q1010 NOSIG
過去の天気等 Google飛行場航空写真 Wunderground天気予報

過去48時間のMETAR

飛行場予報(TAF)
発表時間: 9/25 05:00 BDT (9/24 23:00 UTC)
予報対象時間: 25日6時 BDT ~ 26日12時 BDT
風向・風速南南西 4m/s
視程3500m
天気現象煙霧
全天の4割程度の雲 雲底高度 370m
全天の8割程度の雲 雲底高度 3050m
25日6時 BDT ~ 25日24時 BDT に一時的に
風向・風速南 13m/s
視程2000m
26日0時 BDT ~ 26日2時 BDT に徐々に
風向・風速南 4m/s
視程4000m
天気現象煙霧
全天の4割程度の雲 雲底高度 460m
全天の8割程度の雲 雲底高度 3050m
TAF VGHS 242300Z 2500/2606 20008KT 3500 HZ SCT012 BKN100
TEMPO 2500/2518 18025KT 2000 RA/TSRA BKN007 FEW025CB BKN090
BECMG 2518/2520 18007KT 4000 HZ SCT015 BKN100